Perry, South Carolina
Current Conditions -  °F | °C
As of 10:55 PM on Saturday 22 Nov 2014 (Local Time) from KAIK Reporting Station
Broken Clouds Broken Clouds  
Wind Chill: 52°   Ceiling: 12000
Heat Index: 52°   Visibility: 10mi
Dew Point: 32°   Wind: 3mph
Humidity: 47%   Direction: 70°ENE
Pressure: 30.31"   Gusts: NA
Location:  33.63°N, 81.31°W
Report Text: KAIK 230355Z AUTO 07003KT 10SM BKN120 11/00 A3031 RMK AO2 PNO
Loading
Personal Weather Stations






























Interactive Weather Map New forecast layout! Learn more

10-Day Weather Forecast

Advertisements
Track Severe Weather on mobile